Time;durP1;ratioP1;P1;durP2;ratioP2;P2;SDS_P1;SDS_P2;PMS_P1;PMS_P2;Temp;Humidity;BMP_temperature;BMP_pressure;BME280_temperature;BME280_humidity;BME280_pressure;Samples;Min_cycle;Max_cycle;Signal;HPM_P1;HPM_P2
2022/03/22 05:00:40;;;;;;;13.70;11.57;;;2.90;99.90;;;;;;5770881;23;20254;-69
2022/03/22 05:03:08;;;;;;;18.60;12.55;;;2.90;99.90;;;;;;4912623;29;20239;-69
2022/03/22 05:08:19;;;;;;;17.98;11.98;;;2.90;99.90;;;;;;4911106;29;20278;-69
2022/03/22 05:10:45;;;;;;;14.88;11.88;;;2.90;99.90;;;;;;4914527;29;20226;-69
2022/03/22 05:13:12;;;;;;;15.50;11.82;;;3.00;99.90;;;;;;4915459;29;20358;-69
2022/03/22 05:15:40;;;;;;;19.10;12.40;;;3.00;99.90;;;;;;4906756;29;20212;-69
2022/03/22 05:18:07;;;;;;;16.33;11.75;;;3.00;99.90;;;;;;4896336;29;20242;-69
2022/03/22 05:20:33;;;;;;;15.23;10.50;;;3.00;99.90;;;;;;4897413;29;20232;-69
2022/03/22 05:23:00;;;;;;;18.52;12.25;;;3.00;99.90;;;;;;4896554;29;20259;-70
2022/03/22 05:25:30;;;;;;;13.07;11.68;;;3.00;99.90;;;;;;4896135;29;20211;-69
2022/03/22 05:27:58;;;;;;;16.90;12.98;;;3.00;99.90;;;;;;4898745;29;20211;-70
2022/03/22 05:30:25;;;;;;;16.38;10.82;;;3.00;99.90;;;;;;4895855;29;20211;-69
2022/03/22 05:32:53;;;;;;;16.73;12.05;;;3.10;99.90;;;;;;4910859;29;20232;-69
2022/03/22 05:35:19;;;;;;;15.52;10.98;;;3.10;99.90;;;;;;4914115;29;20672;-69
2022/03/22 05:37:46;;;;;;;16.67;11.82;;;3.20;99.90;;;;;;4915411;29;20230;-69
2022/03/22 05:40:13;;;;;;;16.38;11.35;;;3.20;99.90;;;;;;4913464;29;20257;-70
2022/03/22 05:42:42;;;;;;;13.95;10.80;;;3.20;99.90;;;;;;4907635;29;20323;-69
2022/03/22 05:45:11;;;;;;;21.08;10.65;;;3.30;99.90;;;;;;4910235;29;20640;-69
2022/03/22 05:47:38;;;;;;;17.25;11.88;;;3.30;99.90;;;;;;4914075;29;20214;-68
2022/03/22 05:50:08;;;;;;;16.00;11.70;;;3.40;99.90;;;;;;4914455;29;20681;-69
2022/03/22 05:52:35;;;;;;;14.35;11.25;;;3.40;99.90;;;;;;4914199;29;20241;-68
2022/03/22 05:55:01;;;;;;;18.13;10.70;;;3.50;99.90;;;;;;4914477;29;20270;-69
2022/03/22 05:57:29;;;;;;;18.48;10.63;;;3.50;99.90;;;;;;4911492;29;20639;-69
2022/03/22 05:59:56;;;;;;;15.85;11.65;;;3.60;99.90;;;;;;4914451;29;20203;-69
2022/03/22 06:02:22;;;;;;;16.95;10.52;;;3.60;99.90;;;;;;4914563;29;20242;-67
2022/03/22 06:04:49;;;;;;;16.52;10.52;;;3.60;99.90;;;;;;4914252;29;20258;-68
2022/03/22 06:07:20;;;;;;;16.08;10.52;;;3.70;99.90;;;;;;4911585;29;20231;-68
2022/03/22 06:09:47;;;;;;;15.55;11.57;;;3.70;99.90;;;;;;4926676;29;20288;-69
2022/03/22 06:12:14;;;;;;;15.70;11.75;;;3.80;99.90;;;;;;4932276;29;20242;-68
2022/03/22 06:14:41;;;;;;;13.10;9.98;;;3.90;99.90;;;;;;4914487;29;20214;-69
2022/03/22 06:17:08;;;;;;;17.52;13.25;;;3.90;99.90;;;;;;4913730;29;20222;-69
2022/03/22 06:19:34;;;;;;;17.40;13.25;;;4.10;99.90;;;;;;4914024;29;20203;-69
2022/03/22 06:22:01;;;;;;;15.88;12.48;;;4.10;99.90;;;;;;4913971;29;20317;-68
2022/03/22 06:24:29;;;;;;;15.13;10.85;;;4.20;99.90;;;;;;4914124;29;20229;-68
2022/03/22 06:26:56;;;;;;;12.50;10.50;;;4.30;99.90;;;;;;4914014;29;20207;-69
2022/03/22 06:29:22;;;;;;;17.00;12.02;;;4.40;99.90;;;;;;4902014;29;20692;-69
2022/03/22 06:31:49;;;;;;;16.15;12.30;;;4.40;99.90;;;;;;4900266;29;20270;-68
2022/03/22 06:34:16;;;;;;;17.10;11.30;;;4.60;99.90;;;;;;4899015;29;20208;-69
2022/03/22 06:36:42;;;;;;;14.13;10.60;;;4.60;99.90;;;;;;4899385;29;20214;-69
2022/03/22 06:39:09;;;;;;;24.30;15.18;;;4.80;99.90;;;;;;4913724;29;20735;-69
2022/03/22 06:41:37;;;;;;;16.85;11.88;;;4.90;99.90;;;;;;4912949;29;20238;-68
2022/03/22 06:44:04;;;;;;;16.92;12.50;;;4.90;99.90;;;;;;4914571;29;20269;-68
2022/03/22 06:46:32;;;;;;;100.93;48.80;;;5.00;99.90;;;;;;4914162;29;20207;-68
2022/03/22 06:48:59;;;;;;;65.65;39.38;;;5.10;99.90;;;;;;4913342;29;20208;-68
2022/03/22 06:51:26;;;;;;;85.90;47.80;;;5.30;99.90;;;;;;4913302;29;20804;-68
2022/03/22 06:53:52;;;;;;;39.05;23.58;;;5.40;99.90;;;;;;4913378;29;20275;-68
2022/03/22 06:56:19;;;;;;;84.63;43.25;;;5.50;99.90;;;;;;4908365;29;20207;-68
2022/03/22 06:58:50;;;;;;;68.57;41.03;;;5.60;99.90;;;;;;4914842;29;20298;-68
2022/03/22 07:01:16;;;;;;;33.42;24.17;;;5.70;99.90;;;;;;4912046;29;20238;-68
2022/03/22 07:03:43;;;;;;;19.17;13.35;;;5.80;99.90;;;;;;4921986;29;21100;-69
2022/03/22 07:06:10;;;;;;;14.30;11.77;;;5.90;99.90;;;;;;4904392;29;20215;-68
2022/03/22 07:08:36;;;;;;;17.08;13.20;;;5.90;99.90;;;;;;4905105;29;20210;-69
2022/03/22 07:13:49;;;;;;;14.95;11.18;;;5.90;99.90;;;;;;4913664;29;20213;-68
2022/03/22 07:16:16;;;;;;;16.38;12.00;;;5.90;99.90;;;;;;4913667;29;20206;-68
2022/03/22 07:18:42;;;;;;;14.93;11.88;;;6.00;99.90;;;;;;4912432;29;20278;-69
2022/03/22 07:21:09;;;;;;;15.95;11.82;;;6.10;99.90;;;;;;4916943;29;20590;-68
2022/03/22 07:23:36;;;;;;;16.95;13.68;;;6.20;99.90;;;;;;4916521;29;20209;-68
2022/03/22 07:26:03;;;;;;;15.73;12.40;;;6.20;99.90;;;;;;4917429;29;20738;-70
2022/03/22 07:28:30;;;;;;;20.80;13.48;;;6.30;99.90;;;;;;4915713;29;20349;-68
2022/03/22 07:30:58;;;;;;;16.17;10.95;;;6.30;99.90;;;;;;4916839;29;20289;-68
2022/03/22 07:33:25;;;;;;;16.58;12.43;;;6.40;99.90;;;;;;4915941;29;20226;-70
2022/03/22 07:35:52;;;;;;;14.90;12.15;;;6.50;99.90;;;;;;4917352;29;20218;-69
2022/03/22 07:38:18;;;;;;;16.92;13.07;;;6.50;99.90;;;;;;4915175;29;20288;-68
2022/03/22 07:40:45;;;;;;;23.00;14.18;;;6.60;99.90;;;;;;4897422;29;20651;-69
2022/03/22 07:43:12;;;;;;;17.30;12.48;;;6.60;99.90;;;;;;4902805;29;20230;-68
2022/03/22 07:45:38;;;;;;;18.63;12.98;;;6.70;99.90;;;;;;4907685;29;20258;-68
2022/03/22 07:48:06;;;;;;;16.60;11.93;;;6.70;99.90;;;;;;4911045;29;20206;-68
2022/03/22 07:53:17;;;;;;;17.38;12.30;;;6.90;99.90;;;;;;4916450;29;20309;-69
2022/03/22 07:55:44;;;;;;;17.23;12.90;;;7.00;99.90;;;;;;4914205;29;20214;-69
2022/03/22 07:58:11;;;;;;;20.13;15.77;;;7.10;99.90;;;;;;4917665;29;20843;-67
2022/03/22 08:00:39;;;;;;;22.20;14.68;;;7.30;99.90;;;;;;4915357;29;20879;-69
2022/03/22 08:03:10;;;;;;;25.90;15.10;;;7.40;99.90;;;;;;4916245;29;20672;-68
2022/03/22 08:05:38;;;;;;;16.48;14.10;;;7.50;99.90;;;;;;4915966;29;20216;-67
2022/03/22 08:08:05;;;;;;;18.85;14.18;;;7.70;99.90;;;;;;4911218;29;20683;-67
2022/03/22 08:10:32;;;;;;;20.23;13.55;;;7.80;99.90;;;;;;4896668;29;20222;-68
2022/03/22 08:13:00;;;;;;;20.27;14.30;;;7.90;99.90;;;;;;4914582;29;20637;-69
2022/03/22 08:15:26;;;;;;;18.38;14.65;;;8.00;99.90;;;;;;4910776;29;20664;-67
2022/03/22 08:17:53;;;;;;;19.48;14.95;;;8.00;99.90;;;;;;4903765;29;20649;-67
2022/03/22 08:20:22;;;;;;;19.70;13.75;;;8.10;99.90;;;;;;4906826;29;20208;-67
2022/03/22 08:22:50;;;;;;;20.13;14.95;;;8.20;99.90;;;;;;4897451;29;20223;-68
2022/03/22 08:25:19;;;;;;;21.77;15.40;;;8.40;99.90;;;;;;4907772;29;20294;-67
2022/03/22 08:27:46;;;;;;;17.65;14.93;;;8.50;99.90;;;;;;4916359;29;20294;-68
2022/03/22 08:30:13;;;;;;;18.33;14.98;;;8.60;99.90;;;;;;4914784;29;20262;-68
2022/03/22 08:32:41;;;;;;;18.27;12.75;;;8.70;99.90;;;;;;4915476;29;20210;-69
2022/03/22 08:35:08;;;;;;;18.98;14.20;;;8.80;99.90;;;;;;4912533;29;20203;-68
2022/03/22 08:37:36;;;;;;;17.27;14.18;;;8.90;99.90;;;;;;4915777;29;20222;-69
2022/03/22 08:40:04;;;;;;;22.52;16.40;;;9.00;99.90;;;;;;4907587;29;20214;-70
2022/03/22 08:42:31;;;;;;;23.35;13.93;;;9.10;99.90;;;;;;4897416;29;20227;-69
2022/03/22 08:44:57;;;;;;;16.27;14.48;;;9.20;99.90;;;;;;4916128;29;20265;-69
2022/03/22 08:47:24;;;;;;;19.10;14.48;;;9.40;99.90;;;;;;4914819;29;20341;-69
2022/03/22 08:49:52;;;;;;;15.43;13.00;;;9.50;99.90;;;;;;4907522;29;20206;-69
2022/03/22 08:52:19;;;;;;;17.30;14.32;;;9.70;99.90;;;;;;4922944;29;20226;-69
2022/03/22 08:54:47;;;;;;;15.60;13.25;;;9.80;99.90;;;;;;4917554;29;20211;-69
2022/03/22 08:57:13;;;;;;;18.67;14.50;;;9.90;99.90;;;;;;4914518;29;20727;-69
2022/03/22 08:59:40;;;;;;;16.88;13.77;;;10.10;99.30;;;;;;4909925;29;20223;-69
2022/03/22 09:02:09;;;;;;;18.95;11.75;;;10.20;98.70;;;;;;4913902;29;20234;-69
2022/03/22 09:07:20;;;;;;;18.17;14.57;;;10.60;96.30;;;;;;4914818;29;20217;-69
2022/03/22 09:09:48;;;;;;;14.40;12.80;;;10.80;95.50;;;;;;4902614;29;20199;-69
2022/03/22 09:12:15;;;;;;;15.68;12.55;;;10.90;95.30;;;;;;4903146;29;20231;-66
2022/03/22 09:14:41;;;;;;;15.15;13.18;;;11.00;95.00;;;;;;4915080;29;20214;-69
2022/03/22 09:17:08;;;;;;;18.67;12.88;;;11.10;94.20;;;;;;4915044;29;20584;-67
2022/03/22 09:19:36;;;;;;;15.32;12.30;;;11.20;94.10;;;;;;4914416;29;20632;-70
2022/03/22 09:22:05;;;;;;;16.05;13.55;;;11.40;93.50;;;;;;4914733;29;20298;-70
2022/03/22 09:24:32;;;;;;;14.25;12.82;;;11.40;93.30;;;;;;4914753;29;20229;-70
2022/03/22 09:27:00;;;;;;;17.02;13.15;;;11.50;92.90;;;;;;4915207;29;20692;-69
2022/03/22 09:29:26;;;;;;;15.40;11.80;;;11.60;92.70;;;;;;4915072;29;20543;-69
2022/03/22 09:31:53;;;;;;;12.65;11.35;;;11.70;92.90;;;;;;4914400;29;20262;-68
2022/03/22 09:34:21;;;;;;;16.37;12.97;;;11.90;91.80;;;;;;4914435;29;20293;-69
2022/03/22 09:36:48;;;;;;;15.60;12.60;;;12.10;91.00;;;;;;4915274;29;20518;-70
2022/03/22 09:39:15;;;;;;;14.77;12.20;;;12.20;90.60;;;;;;4915764;29;20229;-68
2022/03/22 09:41:42;;;;;;;14.85;13.35;;;12.30;90.50;;;;;;4914253;29;20483;-71
2022/03/22 09:44:11;;;;;;;16.42;11.65;;;12.30;90.50;;;;;;4914825;29;20254;-70
2022/03/22 09:46:39;;;;;;;13.57;11.90;;;12.30;90.30;;;;;;4910405;29;20257;-68
2022/03/22 09:49:08;;;;;;;13.80;11.40;;;12.30;89.00;;;;;;4915230;29;20467;-69
2022/03/22 09:51:47;;;;;;;17.70;11.10;;;12.40;86.80;;;;;;4915561;29;20238;-69
2022/03/22 09:54:15;;;;;;;12.67;11.37;;;12.60;86.90;;;;;;4922600;29;20474;-69
2022/03/22 09:56:42;;;;;;;12.50;11.30;;;12.70;85.90;;;;;;4917968;29;20462;-69
2022/03/22 09:59:11;;;;;;;18.63;10.40;;;12.70;84.00;;;;;;4914512;29;20490;-69
2022/03/22 10:01:38;;;;;;;13.00;10.60;;;12.80;82.80;;;;;;4913277;29;21031;-69
2022/03/22 10:04:07;;;;;;;12.97;11.03;;;12.80;81.50;;;;;;4913872;29;20466;-70
2022/03/22 10:06:35;;;;;;;13.43;12.00;;;12.90;80.80;;;;;;4915305;29;20545;-71
2022/03/22 10:09:05;;;;;;;12.20;10.90;;;12.90;79.90;;;;;;4914473;29;20459;-70
2022/03/22 10:11:36;;;;;;;14.83;10.90;;;13.00;81.00;;;;;;4915411;29;20524;-70
2022/03/22 10:14:03;;;;;;;10.27;9.23;;;13.10;79.70;;;;;;4913690;29;20494;-70
2022/03/22 10:16:31;;;;;;;15.50;11.70;;;13.10;77.30;;;;;;4914476;29;20557;-70
2022/03/22 10:18:58;;;;;;;16.20;12.43;;;13.20;77.90;;;;;;4913838;29;20545;-70
2022/03/22 10:21:25;;;;;;;15.40;11.80;;;13.30;76.20;;;;;;4913961;29;20496;-69
2022/03/22 10:23:53;;;;;;;12.50;10.63;;;13.30;76.30;;;;;;4909518;29;20523;-68
2022/03/22 10:26:20;;;;;;;15.43;10.93;;;13.50;77.70;;;;;;4920019;29;20931;-68
2022/03/22 10:28:51;;;;;;;15.50;13.07;;;13.50;78.40;;;;;;4916928;29;20459;-70
2022/03/22 10:31:18;;;;;;;14.80;13.10;;;13.60;78.40;;;;;;4913951;29;20786;-69
2022/03/22 10:33:53;;;;;;;14.53;11.93;;;13.70;76.10;;;;;;4913900;29;20470;-69
2022/03/22 10:36:22;;;;;;;16.30;11.50;;;13.80;76.30;;;;;;4913948;29;20466;-69
2022/03/22 10:38:57;;;;;;;12.87;11.30;;;13.80;76.40;;;;;;4913585;29;20710;-69
2022/03/22 10:41:28;;;;;;;16.57;12.57;;;13.80;77.50;;;;;;4913314;29;20486;-69
2022/03/22 10:44:03;;;;;;;13.57;11.50;;;14.00;75.50;;;;;;4914004;29;20462;-70
2022/03/22 10:46:30;;;;;;;16.37;12.13;;;14.10;72.70;;;;;;4913619;29;20461;-69
2022/03/22 10:49:05;;;;;;;12.23;9.73;;;14.20;71.20;;;;;;4913353;29;20466;-69
2022/03/22 10:51:34;;;;;;;14.97;11.47;;;14.40;71.10;;;;;;4895267;29;20486;-69
2022/03/22 10:54:00;;;;;;;11.83;10.63;;;14.40;71.10;;;;;;4907548;29;20463;-68
2022/03/22 10:56:27;;;;;;;12.80;10.77;;;14.40;71.50;;;;;;4904926;29;20471;-68
2022/03/22 10:58:55;;;;;;;11.63;10.20;;;14.40;67.80;;;;;;4914144;29;20489;-68
2022/03/22 11:01:23;;;;;;;13.77;10.37;;;14.50;65.80;;;;;;4919139;29;20580;-68
2022/03/22 11:03:50;;;;;;;11.73;10.10;;;14.70;63.10;;;;;;4914797;29;20888;-69
2022/03/22 11:06:20;;;;;;;14.87;10.80;;;14.80;62.60;;;;;;4917623;29;20497;-68
2022/03/22 11:08:47;;;;;;;12.57;11.37;;;14.80;62.70;;;;;;4916334;29;20866;-69
2022/03/22 11:11:14;;;;;;;10.50;9.40;;;14.80;62.70;;;;;;4900887;29;20490;-69
2022/03/22 11:13:41;;;;;;;8.17;7.03;;;14.70;59.20;;;;;;4909952;29;20470;-68
2022/03/22 11:16:08;;;;;;;9.83;8.83;;;14.80;58.20;;;;;;4917193;29;20513;-69
2022/03/22 11:18:36;;;;;;;9.20;7.87;;;14.90;57.80;;;;;;4916158;29;20472;-69
2022/03/22 11:21:04;;;;;;;9.43;8.53;;;14.90;57.30;;;;;;4916756;29;20541;-69
2022/03/22 11:23:34;;;;;;;10.07;9.10;;;15.00;56.00;;;;;;4915679;29;20901;-69
2022/03/22 11:26:10;;;;;;;11.07;10.07;;;15.10;56.10;;;;;;4901869;29;20466;-67
2022/03/22 11:28:40;;;;;;;13.10;11.70;;;15.20;56.70;;;;;;4899852;29;20467;-68
2022/03/22 11:31:09;;;;;;;15.67;10.33;;;15.20;58.10;;;;;;4902858;29;20486;-69
2022/03/22 11:36:25;;;;;;;9.87;8.97;;;15.20;57.40;;;;;;4916427;29;20457;-68
2022/03/22 11:38:54;;;;;;;13.07;10.13;;;15.20;56.80;;;;;;4916128;29;20975;-68
2022/03/22 11:44:15;;;;;;;12.27;10.93;;;15.30;57.50;;;;;;4908014;29;20897;-68
2022/03/22 11:46:43;;;;;;;13.23;10.70;;;15.30;56.90;;;;;;4915022;29;20529;-68
2022/03/22 11:49:15;;;;;;;11.77;9.97;;;15.30;56.80;;;;;;4915962;29;20459;-68
2022/03/22 11:51:56;;;;;;;11.17;9.63;;;15.40;55.90;;;;;;4916329;29;20490;-69
2022/03/22 11:54:26;;;;;;;12.10;10.40;;;15.50;54.30;;;;;;4902430;29;20588;-68
2022/03/22 11:56:54;;;;;;;11.60;10.20;;;15.60;55.70;;;;;;4907273;29;20474;-68
2022/03/22 11:59:22;;;;;;;10.27;9.27;;;15.70;55.60;;;;;;4902949;29;20482;-68
2022/03/22 12:01:59;;;;;;;15.87;11.73;;;15.70;55.00;;;;;;4917714;29;21051;-67
2022/03/22 12:04:37;;;;;;;12.90;10.70;;;15.60;54.80;;;;;;4923638;29;20466;-69
2022/03/22 12:07:04;;;;;;;10.10;9.10;;;15.70;56.40;;;;;;4913402;29;20474;-69
2022/03/22 12:09:32;;;;;;;11.53;9.83;;;15.70;56.10;;;;;;4916165;29;20947;-68
2022/03/22 12:12:00;;;;;;;12.50;10.63;;;15.70;54.70;;;;;;4908781;29;20542;-70
2022/03/22 12:14:28;;;;;;;11.53;10.27;;;15.70;54.80;;;;;;4916725;29;20884;-68
2022/03/22 12:16:56;;;;;;;8.23;6.80;;;15.70;53.60;;;;;;4916168;29;20466;-69
2022/03/22 12:19:27;;;;;;;12.73;11.33;;;15.80;53.50;;;;;;4916661;29;20509;-68
2022/03/22 12:21:55;;;;;;;10.10;9.13;;;15.90;55.10;;;;;;4907884;29;20487;-69
2022/03/22 12:24:23;;;;;;;14.70;10.60;;;15.80;54.10;;;;;;4901655;29;20941;-69
2022/03/22 12:26:52;;;;;;;14.70;11.40;;;15.80;55.00;;;;;;4916473;29;20467;-70
2022/03/22 12:29:20;;;;;;;11.80;10.33;;;15.90;54.50;;;;;;4916520;29;20542;-69
2022/03/22 12:31:48;;;;;;;14.03;12.50;;;15.90;54.50;;;;;;4909040;29;20856;-69
2022/03/22 12:34:15;;;;;;;13.40;10.90;;;16.10;54.90;;;;;;4914542;29;20529;-71
2022/03/22 12:36:42;;;;;;;12.80;11.47;;;16.10;54.40;;;;;;4915520;29;21001;-68
2022/03/22 12:39:09;;;;;;;13.87;11.23;;;16.10;54.80;;;;;;4916335;29;20577;-69
2022/03/22 12:41:36;;;;;;;13.20;10.60;;;16.10;54.60;;;;;;4915336;29;20491;-71
2022/03/22 12:44:04;;;;;;;12.83;11.47;;;16.10;55.40;;;;;;4916329;29;20466;-69
2022/03/22 12:46:32;;;;;;;12.17;10.77;;;16.10;54.10;;;;;;4914032;29;20470;-69
2022/03/22 12:48:59;;;;;;;13.97;10.40;;;16.10;55.10;;;;;;4910892;29;20828;-69
2022/03/22 12:51:26;;;;;;;14.80;11.23;;;16.10;55.10;;;;;;4912380;29;20633;-69
2022/03/22 12:53:53;;;;;;;12.87;11.60;;;16.20;55.30;;;;;;4913153;29;21094;-69
2022/03/22 12:56:22;;;;;;;17.07;12.83;;;16.20;55.40;;;;;;4897137;29;20471;-70
2022/03/22 12:58:51;;;;;;;13.70;12.00;;;16.30;55.90;;;;;;4898448;29;20964;-70
2022/03/22 13:01:19;;;;;;;14.10;12.33;;;16.40;56.00;;;;;;4903630;29;20490;-69
2022/03/22 13:03:46;;;;;;;13.00;11.60;;;16.40;56.00;;;;;;4907207;29;20987;-69
2022/03/22 13:06:13;;;;;;;14.90;12.43;;;16.30;56.00;;;;;;4913342;29;20565;-69
2022/03/22 13:11:28;;;;;;;16.33;14.50;;;16.30;56.50;;;;;;4903229;29;20749;-69
2022/03/22 13:16:40;;;;;;;17.40;12.73;;;16.30;56.50;;;;;;4909596;29;20454;-68
2022/03/22 13:19:07;;;;;;;14.40;11.87;;;16.30;57.30;;;;;;4896998;29;20475;-72
2022/03/22 13:21:38;;;;;;;16.47;12.23;;;16.40;57.40;;;;;;4904912;29;20505;-71
2022/03/22 13:24:07;;;;;;;13.53;12.00;;;16.40;57.10;;;;;;4914533;29;20463;-69
2022/03/22 13:26:34;;;;;;;13.77;11.37;;;16.40;57.10;;;;;;4915225;29;20617;-68
2022/03/22 13:29:10;;;;;;;13.20;11.57;;;16.50;56.00;;;;;;4915260;29;20470;-69
2022/03/22 13:31:37;;;;;;;14.07;12.27;;;16.40;55.40;;;;;;4914259;29;20486;-68
2022/03/22 13:34:05;;;;;;;14.40;11.40;;;16.40;55.90;;;;;;4914690;29;20537;-71
2022/03/22 13:36:32;;;;;;;13.37;11.93;;;16.30;56.10;;;;;;4915095;29;20466;-68
2022/03/22 13:39:02;;;;;;;12.50;10.63;;;16.30;56.20;;;;;;4914703;29;20475;-69
2022/03/22 13:41:30;;;;;;;14.63;11.13;;;16.30;55.60;;;;;;4914049;29;20471;-69
2022/03/22 13:43:57;;;;;;;13.93;11.10;;;16.40;55.30;;;;;;4914534;29;20464;-68
2022/03/22 13:46:23;;;;;;;12.53;10.63;;;16.40;54.90;;;;;;4907676;29;20471;-68
2022/03/22 13:48:53;;;;;;;12.93;10.60;;;16.40;55.10;;;;;;4914436;29;20458;-68
2022/03/22 13:51:23;;;;;;;13.27;10.37;;;16.40;55.10;;;;;;4914238;29;20578;-70
2022/03/22 13:53:53;;;;;;;11.40;9.97;;;16.40;53.90;;;;;;4914048;29;20582;-69
2022/03/22 13:56:23;;;;;;;13.23;10.60;;;16.40;54.20;;;;;;4914618;29;20462;-69
2022/03/22 13:58:50;;;;;;;14.50;10.27;;;16.50;54.30;;;;;;4914685;29;20462;-68
2022/03/22 14:01:17;;;;;;;25.80;13.60;;;16.60;53.80;;;;;;4913623;29;20545;-69
2022/03/22 14:03:44;;;;;;;13.97;9.00;;;16.60;54.20;;;;;;4913902;29;21331;-69
2022/03/22 14:06:11;;;;;;;12.80;10.47;;;16.60;53.90;;;;;;4915595;29;20581;-69
2022/03/22 14:08:39;;;;;;;11.10;10.00;;;16.60;53.40;;;;;;4911377;29;20913;-68
2022/03/22 14:11:06;;;;;;;14.00;10.90;;;16.60;53.40;;;;;;4921346;29;20481;-70
2022/03/22 14:13:33;;;;;;;14.00;11.17;;;16.60;53.60;;;;;;4919857;29;20542;-68
2022/03/22 14:16:01;;;;;;;11.43;10.23;;;16.60;53.90;;;;;;4916724;29;20470;-68
2022/03/22 14:18:27;;;;;;;11.07;9.67;;;16.60;52.80;;;;;;4915139;29;20534;-68
2022/03/22 14:20:55;;;;;;;9.70;8.70;;;16.50;52.50;;;;;;4914885;29;20526;-68
2022/03/22 14:23:22;;;;;;;12.93;11.07;;;16.60;52.70;;;;;;4915988;29;20537;-70
2022/03/22 14:25:51;;;;;;;11.97;10.70;;;16.60;52.70;;;;;;4914887;29;20466;-70
2022/03/22 14:28:20;;;;;;;12.10;10.90;;;16.60;52.50;;;;;;4915035;29;20558;-69
2022/03/22 14:30:47;;;;;;;10.97;9.80;;;16.50;52.30;;;;;;4914061;29;20834;-70
2022/03/22 14:33:17;;;;;;;12.63;9.23;;;16.50;51.50;;;;;;4913869;29;20498;-68
2022/03/22 14:35:51;;;;;;;10.57;9.50;;;16.50;51.40;;;;;;4910322;29;20927;-69
2022/03/22 14:38:20;;;;;;;9.40;8.40;;;16.50;52.30;;;;;;4913627;29;20498;-69
2022/03/22 14:40:48;;;;;;;11.90;9.70;;;16.60;51.50;;;;;;4913330;29;20498;-69
2022/03/22 14:43:17;;;;;;;9.70;8.80;;;16.60;51.60;;;;;;4914462;29;20466;-69
2022/03/22 14:45:47;;;;;;;11.80;10.60;;;16.60;51.30;;;;;;4914271;29;20474;-69
2022/03/22 14:48:15;;;;;;;11.30;10.20;;;16.60;50.60;;;;;;4913557;29;20557;-69
2022/03/22 14:50:42;;;;;;;12.90;10.50;;;16.60;51.60;;;;;;4913320;29;20921;-69
2022/03/22 14:58:47;;;;;;;14.03;11.00;;;16.60;51.30;;;;;;4913836;29;21089;-68
2022/03/22 14:58:52;;;;;;;14.87;10.47;;;16.50;51.80;;;;;;4895107;29;20498;-68
2022/03/22 15:01:20;;;;;;;11.73;10.40;;;16.50;51.70;;;;;;4894071;29;20501;-69
2022/03/22 15:03:47;;;;;;;12.50;10.23;;;16.60;51.00;;;;;;4895136;29;20622;-69
2022/03/22 15:06:17;;;;;;;14.37;10.03;;;16.50;51.00;;;;;;4896760;29;20467;-68
2022/03/22 15:08:45;;;;;;;11.00;9.90;;;16.60;50.90;;;;;;4911878;29;20462;-68
2022/03/22 15:11:13;;;;;;;11.57;9.90;;;16.50;51.40;;;;;;4913179;29;20514;-69
2022/03/22 15:13:39;;;;;;;11.47;10.27;;;16.60;50.70;;;;;;4911785;29;20473;-68
2022/03/22 15:16:11;;;;;;;12.80;10.20;;;16.60;50.80;;;;;;4921861;29;20476;-68
2022/03/22 15:18:38;;;;;;;10.70;9.60;;;16.60;50.70;;;;;;4913394;29;20470;-69
2022/03/22 15:21:06;;;;;;;10.53;9.50;;;16.60;51.20;;;;;;4913033;29;20553;-68
2022/03/22 15:23:33;;;;;;;11.97;10.53;;;16.60;50.80;;;;;;4913282;29;20974;-69
2022/03/22 15:26:00;;;;;;;14.27;10.40;;;16.60;51.20;;;;;;4913742;29;20491;-69
2022/03/22 15:28:27;;;;;;;12.83;10.63;;;16.60;51.40;;;;;;4913116;29;20462;-69
2022/03/22 15:30:54;;;;;;;15.23;10.70;;;16.50;51.80;;;;;;4912600;29;20516;-69
2022/03/22 15:33:22;;;;;;;11.63;10.47;;;16.60;51.60;;;;;;4912976;29;20577;-69
2022/03/22 15:35:48;;;;;;;12.63;11.40;;;16.60;51.40;;;;;;4913797;29;20462;-68
2022/03/22 15:38:16;;;;;;;10.93;9.87;;;16.60;52.00;;;;;;4913286;29;20557;-69
2022/03/22 15:40:43;;;;;;;14.93;11.00;;;16.50;52.50;;;;;;4915131;29;20501;-70
2022/03/22 15:43:11;;;;;;;13.00;10.90;;;16.50;51.80;;;;;;4914514;29;20471;-68
2022/03/22 15:45:38;;;;;;;14.70;11.33;;;16.50;52.50;;;;;;4904188;29;20498;-69
2022/03/22 15:48:06;;;;;;;11.67;10.00;;;16.40;52.30;;;;;;4915585;29;20694;-68
2022/03/22 15:50:34;;;;;;;12.43;10.87;;;16.40;52.20;;;;;;4916294;29;20459;-69
2022/03/22 15:53:02;;;;;;;11.83;10.63;;;16.40;52.80;;;;;;4914423;29;20561;-68
2022/03/22 15:55:30;;;;;;;12.10;10.70;;;16.40;52.80;;;;;;4904510;29;20462;-69
2022/03/22 15:57:57;;;;;;;12.13;10.90;;;16.40;52.70;;;;;;4915426;29;21061;-69
2022/03/22 16:00:26;;;;;;;13.77;10.97;;;16.30;53.20;;;;;;4915339;29;20975;-68
2022/03/22 16:02:53;;;;;;;13.83;11.23;;;16.20;53.40;;;;;;4914968;29;20466;-67
2022/03/22 16:05:20;;;;;;;12.73;11.00;;;16.20;53.60;;;;;;4912674;29;20958;-69
2022/03/22 16:07:48;;;;;;;12.70;11.17;;;16.20;53.50;;;;;;4913257;29;20466;-70
2022/03/22 16:10:16;;;;;;;14.60;13.07;;;16.10;53.90;;;;;;4923471;29;20542;-70
2022/03/22 16:12:43;;;;;;;11.03;10.03;;;16.10;53.90;;;;;;4916673;29;20939;-70
2022/03/22 16:15:11;;;;;;;15.40;11.07;;;16.00;53.90;;;;;;4916215;29;20521;-70
2022/03/22 16:17:39;;;;;;;10.50;9.40;;;16.00;53.50;;;;;;4915700;29;20459;-68
2022/03/22 16:20:09;;;;;;;13.33;9.40;;;16.00;53.20;;;;;;4915681;29;20464;-68
2022/03/22 16:22:37;;;;;;;13.57;10.40;;;16.00;53.50;;;;;;4915755;29;20493;-68
2022/03/22 16:25:06;;;;;;;10.60;9.70;;;15.90;53.50;;;;;;4912221;29;20608;-68
2022/03/22 16:27:33;;;;;;;11.57;10.07;;;15.80;53.10;;;;;;4923786;29;20469;-69
2022/03/22 16:30:00;;;;;;;12.43;10.27;;;15.80;53.40;;;;;;4917536;29;20466;-68
2022/03/22 16:37:52;;;;;;;10.40;9.30;;;15.50;53.60;;;;;;4906616;29;20618;-69
2022/03/22 16:40:20;;;;;;;13.40;9.67;;;15.40;53.60;;;;;;4908742;29;20517;-68
2022/03/22 16:42:50;;;;;;;10.60;9.50;;;15.40;53.40;;;;;;4915638;29;20951;-69
2022/03/22 16:45:17;;;;;;;12.97;9.30;;;15.30;53.20;;;;;;4914564;29;20478;-68
2022/03/22 16:47:44;;;;;;;9.63;8.63;;;15.30;53.10;;;;;;4923570;29;20490;-69
2022/03/22 16:50:13;;;;;;;10.50;8.90;;;15.20;53.00;;;;;;4915161;29;20888;-69
2022/03/22 16:52:41;;;;;;;9.70;8.37;;;15.10;53.50;;;;;;4914680;29;20494;-70
2022/03/22 16:55:09;;;;;;;13.40;9.00;;;15.10;53.60;;;;;;4907522;29;20550;-69
2022/03/22 16:57:37;;;;;;;10.47;9.37;;;15.00;53.90;;;;;;4915400;29;20477;-70
2022/03/22 17:00:06;;;;;;;11.90;10.33;;;15.00;55.10;;;;;;4912470;29;20551;-70
2022/03/22 17:02:33;;;;;;;13.53;10.00;;;15.00;56.00;;;;;;4909290;29;20498;-69
2022/03/22 17:05:01;;;;;;;11.33;10.20;;;14.90;56.70;;;;;;4909287;29;20463;-69
2022/03/22 17:07:31;;;;;;;15.67;10.67;;;14.90;56.60;;;;;;4915002;29;20462;-69
2022/03/22 17:09:57;;;;;;;12.57;11.27;;;14.80;56.90;;;;;;4908724;29;20535;-70
2022/03/22 17:12:24;;;;;;;11.53;10.43;;;14.70;57.60;;;;;;4906717;29;20543;-69
2022/03/22 17:14:52;;;;;;;11.53;10.43;;;14.60;57.30;;;;;;4911753;29;20495;-70
2022/03/22 17:17:20;;;;;;;14.27;9.80;;;14.40;57.40;;;;;;4913961;29;20517;-70
2022/03/22 17:19:47;;;;;;;11.23;9.77;;;14.30;58.10;;;;;;4914296;29;20538;-70
2022/03/22 17:22:15;;;;;;;12.20;9.90;;;14.20;57.90;;;;;;4914465;29;20502;-70
2022/03/22 17:24:41;;;;;;;14.97;11.37;;;14.10;58.00;;;;;;4911889;29;20562;-69
2022/03/22 17:27:09;;;;;;;10.63;9.53;;;14.00;58.40;;;;;;4910869;29;20474;-70
2022/03/22 17:29:39;;;;;;;13.00;10.43;;;13.90;59.00;;;;;;4922730;29;20525;-70
2022/03/22 17:32:08;;;;;;;12.03;10.87;;;13.90;58.80;;;;;;4914516;29;20816;-69
2022/03/22 17:34:35;;;;;;;14.80;11.30;;;13.70;59.00;;;;;;4914748;29;20866;-69
2022/03/22 17:37:01;;;;;;;11.93;10.57;;;13.60;59.30;;;;;;4914479;29;20964;-72
2022/03/22 17:39:28;;;;;;;15.30;11.87;;;13.50;59.60;;;;;;4914457;29;20522;-69
2022/03/22 17:41:55;;;;;;;12.63;11.33;;;13.50;59.70;;;;;;4914256;29;20996;-71
2022/03/22 17:44:21;;;;;;;12.30;11.00;;;13.40;60.90;;;;;;4913857;29;20467;-71
2022/03/22 17:46:48;;;;;;;14.40;11.60;;;13.30;61.50;;;;;;4920087;29;20536;-70
2022/03/22 17:49:16;;;;;;;13.20;11.57;;;13.20;61.70;;;;;;4930992;29;20986;-71
2022/03/22 17:51:43;;;;;;;11.70;10.50;;;13.00;64.20;;;;;;4913979;29;20629;-70
2022/03/22 17:54:09;;;;;;;12.55;10.68;;;12.80;66.20;;;;;;4913604;29;20463;-69
2022/03/22 17:56:36;;;;;;;12.70;11.27;;;12.70;67.30;;;;;;4909618;29;20211;-68
2022/03/22 17:59:03;;;;;;;11.55;10.40;;;12.50;68.40;;;;;;4913779;29;20207;-69
2022/03/22 18:01:29;;;;;;;12.32;11.13;;;12.40;67.90;;;;;;4907955;29;20230;-69
2022/03/22 18:03:57;;;;;;;12.35;10.77;;;12.20;68.30;;;;;;4914032;29;20206;-68